createdAt,value
2018-03-21T00:01:10.446Z,-3.00
2018-03-21T00:03:37.930Z,-3.00
2018-03-21T00:06:05.414Z,-3.00
2018-03-21T00:08:32.915Z,-2.90
2018-03-21T00:11:00.398Z,-2.90
2018-03-21T00:13:27.874Z,-2.90
2018-03-21T00:15:55.393Z,-2.90
2018-03-21T00:18:22.866Z,-2.90
2018-03-21T00:20:50.355Z,-2.90
2018-03-21T00:23:17.846Z,-2.90
2018-03-21T00:25:45.337Z,-3.00
2018-03-21T00:28:12.827Z,-2.90
2018-03-21T00:30:40.329Z,-2.90
2018-03-21T00:33:07.802Z,-3.00
2018-03-21T00:35:35.314Z,-3.00
2018-03-21T00:38:03.568Z,-3.00
2018-03-21T00:40:31.090Z,-3.00
2018-03-21T00:42:58.570Z,-3.00
2018-03-21T00:45:26.053Z,-3.00
2018-03-21T00:47:53.553Z,-3.00
2018-03-21T00:50:21.035Z,-3.00
2018-03-21T00:52:49.269Z,-3.00
2018-03-21T00:55:16.781Z,-3.00
2018-03-21T00:57:44.275Z,-3.00
2018-03-21T01:00:11.756Z,-3.00
2018-03-21T01:02:39.245Z,-3.00
2018-03-21T01:05:06.725Z,-3.00
2018-03-21T01:07:34.209Z,-3.00
2018-03-21T01:10:02.472Z,-3.10
2018-03-21T01:12:30.731Z,-3.10
2018-03-21T01:14:58.239Z,-3.10
2018-03-21T01:17:25.754Z,-3.10
2018-03-21T01:19:53.238Z,-3.10
2018-03-21T01:22:20.747Z,-3.10
2018-03-21T01:24:48.228Z,-3.10
2018-03-21T01:27:15.711Z,-3.10
2018-03-21T01:29:43.214Z,-3.10
2018-03-21T01:32:11.463Z,-3.10
2018-03-21T01:34:38.942Z,-3.10
2018-03-21T01:37:07.216Z,-3.20
2018-03-21T01:39:35.462Z,-3.10
2018-03-21T01:42:02.947Z,-3.20
2018-03-21T01:44:30.442Z,-3.20
2018-03-21T01:46:57.930Z,-3.20
2018-03-21T01:49:25.443Z,-3.30
2018-03-21T01:51:52.925Z,-3.20
2018-03-21T01:54:21.169Z,-3.30
2018-03-21T01:56:48.678Z,-3.30
2018-03-21T01:59:16.154Z,-3.30
2018-03-21T02:01:43.630Z,-3.30
2018-03-21T02:04:11.144Z,-3.30
2018-03-21T02:06:38.632Z,-3.30
2018-03-21T02:09:06.120Z,-3.30
2018-03-21T02:11:33.618Z,-3.30
2018-03-21T02:14:01.094Z,-3.30
2018-03-21T02:16:28.574Z,-3.40
2018-03-21T02:18:56.078Z,-3.40
2018-03-21T02:21:24.322Z,-3.40
2018-03-21T02:23:51.864Z,-3.40
2018-03-21T02:26:19.370Z,-3.40
2018-03-21T02:28:47.620Z,-3.50
2018-03-21T02:31:15.099Z,-3.50
2018-03-21T02:33:43.379Z,-3.50
2018-03-21T02:36:11.636Z,-3.50
2018-03-21T02:38:39.119Z,-3.50
2018-03-21T02:41:06.627Z,-3.50
2018-03-21T02:43:34.101Z,-3.50
2018-03-21T02:46:01.592Z,-3.60
2018-03-21T02:48:29.869Z,-3.60
2018-03-21T02:50:58.115Z,-3.60
2018-03-21T02:53:25.620Z,-3.70
2018-03-21T02:55:53.102Z,-3.60
2018-03-21T02:58:20.604Z,-3.60
2018-03-21T03:00:48.859Z,-3.60
2018-03-21T03:03:16.363Z,-3.60
2018-03-21T03:05:45.811Z,-3.60
2018-03-21T03:08:13.299Z,-3.60
2018-03-21T03:10:41.551Z,-3.60
2018-03-21T03:13:09.056Z,-3.60
2018-03-21T03:15:36.538Z,-3.60
2018-03-21T03:18:04.042Z,-3.60
2018-03-21T03:20:32.291Z,-3.50
2018-03-21T03:22:59.774Z,-3.50
2018-03-21T03:25:28.049Z,-3.60
2018-03-21T03:27:56.292Z,-3.60
2018-03-21T03:30:23.819Z,-3.60
2018-03-21T03:32:51.314Z,-3.70
2018-03-21T03:35:18.811Z,-3.80
2018-03-21T03:37:46.315Z,-3.90
2018-03-21T03:40:13.793Z,-3.80
2018-03-21T03:42:41.277Z,-3.80
2018-03-21T03:45:09.541Z,-3.80
2018-03-21T03:47:37.795Z,-3.80
2018-03-21T03:50:05.290Z,-3.90
2018-03-21T03:52:32.806Z,-3.80
2018-03-21T03:55:00.297Z,-3.80
2018-03-21T03:57:28.555Z,-3.90
2018-03-21T03:59:56.063Z,-3.90
2018-03-21T04:02:23.546Z,-3.70
2018-03-21T04:04:51.042Z,-3.80
2018-03-21T04:07:19.288Z,-3.80
2018-03-21T04:09:46.765Z,-3.80
2018-03-21T04:12:14.262Z,-3.80
2018-03-21T04:14:41.742Z,-3.90
2018-03-21T04:17:09.243Z,-4.00
2018-03-21T04:19:36.724Z,-4.00
2018-03-21T04:22:04.226Z,-4.00
2018-03-21T04:24:31.703Z,-4.00
2018-03-21T04:26:59.206Z,-3.90
2018-03-21T04:29:26.690Z,-4.00
2018-03-21T04:31:54.174Z,-4.10
2018-03-21T04:34:21.683Z,-4.20
2018-03-21T04:36:49.173Z,-4.30
2018-03-21T04:39:16.659Z,-4.30
2018-03-21T04:41:44.167Z,-4.30
2018-03-21T04:44:11.694Z,-4.30
2018-03-21T04:46:39.947Z,-4.30
2018-03-21T04:49:07.453Z,-4.30
2018-03-21T04:51:34.937Z,-4.30
2018-03-21T04:54:02.426Z,-4.30
2018-03-21T04:56:30.710Z,-4.20
2018-03-21T04:58:58.962Z,-4.30
2018-03-21T05:01:26.445Z,-4.30
2018-03-21T05:03:54.706Z,-4.20
2018-03-21T05:06:22.183Z,-4.20
2018-03-21T05:08:50.519Z,-4.20
2018-03-21T05:11:18.030Z,-4.20
2018-03-21T05:13:45.514Z,-4.20
2018-03-21T05:16:13.018Z,-4.20
2018-03-21T05:18:41.264Z,-4.10
2018-03-21T05:21:08.752Z,-4.20
2018-03-21T05:23:37.031Z,-4.10
2018-03-21T05:26:05.279Z,-4.10
2018-03-21T05:28:32.749Z,-4.10
2018-03-21T05:31:00.251Z,-4.10
2018-03-21T05:33:27.742Z,-4.10
2018-03-21T05:35:55.226Z,-4.10
2018-03-21T05:38:23.495Z,-4.20
2018-03-21T05:40:50.981Z,-4.20
2018-03-21T05:43:18.454Z,-4.10
2018-03-21T05:45:45.955Z,-4.20
2018-03-21T05:48:13.434Z,-4.10
2018-03-21T05:50:41.988Z,-4.10
2018-03-21T05:53:09.484Z,-4.10
2018-03-21T05:55:37.740Z,-4.10
2018-03-21T05:58:05.233Z,-4.10
2018-03-21T06:00:32.754Z,-4.10
2018-03-21T06:03:00.240Z,-4.00
2018-03-21T06:05:27.756Z,-3.90
2018-03-21T06:07:55.242Z,-3.80
2018-03-21T06:10:23.493Z,-3.30
2018-03-21T06:12:51.015Z,-3.30
2018-03-21T06:15:18.486Z,-1.80
2018-03-21T06:17:45.966Z,-0.50
2018-03-21T06:20:13.458Z,0.00
2018-03-21T06:22:40.938Z,0.90
2018-03-21T06:25:08.406Z,0.40
2018-03-21T06:27:35.915Z,-0.30
2018-03-21T06:30:04.158Z,0.50
2018-03-21T06:32:31.689Z,0.50
2018-03-21T06:34:59.161Z,0.60
2018-03-21T06:37:26.634Z,0.80
2018-03-21T06:39:54.135Z,0.90
2018-03-21T06:42:21.607Z,1.80
2018-03-21T06:44:49.086Z,1.00
2018-03-21T06:47:16.596Z,1.70
2018-03-21T06:49:44.837Z,1.40
2018-03-21T06:52:12.339Z,1.40
2018-03-21T06:54:39.811Z,0.70
2018-03-21T06:57:07.312Z,1.20
2018-03-21T06:59:35.707Z,2.30
2018-03-21T07:02:03.178Z,1.50
2018-03-21T07:04:31.419Z,3.20
2018-03-21T07:06:58.919Z,3.20
2018-03-21T07:09:27.536Z,4.90
2018-03-21T07:12:05.437Z,4.80
2018-03-21T07:14:44.791Z,4.70
2018-03-21T07:17:12.318Z,2.50
2018-03-21T07:19:39.842Z,-0.50
2018-03-21T07:22:08.096Z,-2.50
2018-03-21T07:24:35.609Z,-2.50
2018-03-21T07:27:03.113Z,-2.50
2018-03-21T07:29:30.634Z,-2.20
2018-03-21T07:31:58.152Z,-1.00
2018-03-21T07:34:26.442Z,0.70
2018-03-21T07:36:53.926Z,0.70
2018-03-21T07:39:21.443Z,-0.30
2018-03-21T07:41:49.722Z,-0.50
2018-03-21T07:44:17.982Z,-0.70
2018-03-21T07:46:45.474Z,-0.70
2018-03-21T07:49:15.344Z,-0.80
2018-03-21T07:51:43.120Z,1.00
2018-03-21T07:54:12.238Z,5.00
2018-03-21T07:56:39.735Z,5.00
2018-03-21T07:59:07.278Z,6.10
2018-03-21T08:01:34.769Z,6.80
2018-03-21T08:04:04.270Z,5.00
2018-03-21T08:06:31.809Z,6.00
2018-03-21T08:08:59.299Z,5.80
2018-03-21T08:11:26.806Z,6.50
2018-03-21T08:13:54.303Z,6.70
2018-03-21T08:16:21.806Z,7.10
2018-03-21T08:18:49.280Z,7.60
2018-03-21T08:21:16.850Z,7.70
2018-03-21T08:23:44.375Z,7.20
2018-03-21T08:26:12.814Z,6.30
2018-03-21T08:28:40.335Z,6.00
2018-03-21T08:31:07.806Z,7.20
2018-03-21T08:33:35.293Z,8.60
2018-03-21T08:36:02.782Z,7.80
2018-03-21T08:38:31.024Z,3.50
2018-03-21T08:40:58.543Z,3.40
2018-03-21T08:43:26.036Z,2.70
2018-03-21T08:45:53.514Z,2.00
2018-03-21T08:48:21.579Z,1.60
2018-03-21T08:50:49.107Z,1.00
2018-03-21T08:53:17.585Z,0.60
2018-03-21T08:55:45.852Z,0.30
2018-03-21T08:58:13.384Z,0.20
2018-03-21T09:00:41.637Z,0.20
2018-03-21T09:03:09.925Z,0.00
2018-03-21T09:05:38.185Z,-0.40
2018-03-21T09:08:05.703Z,-0.40
2018-03-21T09:10:33.234Z,-0.50
2018-03-21T09:13:00.745Z,-0.50
2018-03-21T09:15:28.253Z,-0.90
2018-03-21T09:17:55.750Z,-1.00
2018-03-21T09:20:24.799Z,-1.50
2018-03-21T09:22:52.316Z,-1.60
2018-03-21T09:25:19.823Z,-1.80
2018-03-21T09:27:47.322Z,-1.70
2018-03-21T09:30:14.848Z,-1.70
2018-03-21T09:32:42.338Z,-1.70
2018-03-21T09:35:09.849Z,-1.60
2018-03-21T09:37:37.380Z,-1.50
2018-03-21T09:40:05.643Z,-1.50
2018-03-21T09:42:33.158Z,-1.50
2018-03-21T09:45:00.640Z,-1.40
2018-03-21T09:47:28.885Z,-1.10
2018-03-21T09:49:56.391Z,-1.10
2018-03-21T09:52:23.881Z,-1.00
2018-03-21T09:54:51.367Z,-1.00
2018-03-21T09:57:19.771Z,-1.10
2018-03-21T09:59:47.258Z,-1.30
2018-03-21T10:02:15.507Z,-1.20
2018-03-21T10:04:43.046Z,-1.30
2018-03-21T10:07:10.522Z,-1.00
2018-03-21T10:09:37.995Z,-0.90
2018-03-21T10:12:06.300Z,-0.70
2018-03-21T10:14:33.825Z,-0.70
2018-03-21T10:17:01.298Z,-0.90
2018-03-21T10:19:29.564Z,-0.60
2018-03-21T10:21:57.827Z,-0.40
2018-03-21T10:24:25.359Z,-0.50
2018-03-21T10:26:52.878Z,-0.50
2018-03-21T10:29:22.291Z,-0.60
2018-03-21T10:31:50.518Z,-0.80
2018-03-21T10:34:18.022Z,-0.80
2018-03-21T10:36:45.523Z,-0.80
2018-03-21T10:39:13.026Z,-0.60
2018-03-21T10:41:40.522Z,-0.50
2018-03-21T10:44:08.011Z,-0.50
2018-03-21T10:46:35.514Z,-0.60
2018-03-21T10:49:03.006Z,-0.60
2018-03-21T10:51:30.506Z,-0.70
2018-03-21T10:53:58.796Z,-0.80
2018-03-21T10:56:26.294Z,-0.80
2018-03-21T10:58:53.771Z,-0.90
2018-03-21T11:01:27.039Z,-0.90
2018-03-21T11:03:56.204Z,-0.70
2018-03-21T11:06:23.712Z,-0.70
2018-03-21T11:08:51.197Z,-0.50
2018-03-21T11:11:20.494Z,-0.50
2018-03-21T11:13:48.777Z,-0.40
2018-03-21T11:16:18.020Z,-0.40
2018-03-21T11:18:46.322Z,-0.30
2018-03-21T11:21:13.802Z,-0.30
2018-03-21T11:23:42.046Z,-0.30
2018-03-21T11:26:09.559Z,-0.30
2018-03-21T11:28:37.136Z,-0.10
2018-03-21T11:31:04.693Z,-0.10
2018-03-21T11:33:32.306Z,0.20
2018-03-21T11:36:00.690Z,0.20
2018-03-21T11:38:29.029Z,0.20
2018-03-21T11:40:56.570Z,0.20
2018-03-21T11:43:24.058Z,0.20
2018-03-21T11:45:51.549Z,0.10
2018-03-21T11:48:19.077Z,0.20
2018-03-21T11:50:46.558Z,0.20
2018-03-21T11:53:14.818Z,0.40
2018-03-21T11:55:43.098Z,0.40
2018-03-21T11:58:11.347Z,0.50
2018-03-21T12:00:41.551Z,0.60
2018-03-21T12:03:09.040Z,0.60
2018-03-21T12:05:37.516Z,0.50
2018-03-21T12:08:05.966Z,0.60
2018-03-21T12:10:33.459Z,0.70
2018-03-21T12:13:00.938Z,0.70
2018-03-21T12:15:29.195Z,0.90
2018-03-21T12:17:56.722Z,0.90
2018-03-21T12:20:24.200Z,0.90
2018-03-21T12:22:51.682Z,0.90
2018-03-21T12:25:19.949Z,0.80
2018-03-21T12:27:48.198Z,0.80
2018-03-21T12:30:15.706Z,0.80
2018-03-21T12:32:43.216Z,0.80
2018-03-21T12:35:12.205Z,0.60
2018-03-21T12:37:39.686Z,0.60
2018-03-21T12:40:07.973Z,0.50
2018-03-21T12:42:39.673Z,0.50
2018-03-21T12:45:07.177Z,0.50
2018-03-21T12:47:35.451Z,0.30
2018-03-21T12:50:03.032Z,0.30
2018-03-21T12:52:30.469Z,0.50
2018-03-21T12:54:57.946Z,0.50
2018-03-21T12:57:25.419Z,0.40
2018-03-21T12:59:52.914Z,0.30
2018-03-21T13:02:20.406Z,0.30
2018-03-21T13:04:48.656Z,0.40
2018-03-21T13:07:16.187Z,0.40
2018-03-21T13:09:43.678Z,0.40
2018-03-21T13:12:11.163Z,0.40
2018-03-21T13:14:39.422Z,0.50
2018-03-21T13:17:07.660Z,0.70
2018-03-21T13:19:35.163Z,0.70
2018-03-21T13:22:03.411Z,0.70
2018-03-21T13:24:30.898Z,0.60
2018-03-21T13:26:59.174Z,0.70
2018-03-21T13:29:27.444Z,0.90
2018-03-21T13:31:55.714Z,0.90
2018-03-21T13:34:23.215Z,0.80
2018-03-21T13:36:50.693Z,0.90
2018-03-21T13:39:18.207Z,1.00
2018-03-21T13:41:45.692Z,1.00
2018-03-21T13:44:13.178Z,0.90
2018-03-21T13:46:40.703Z,0.90
2018-03-21T13:49:08.198Z,0.90
2018-03-21T13:51:35.713Z,0.80
2018-03-21T13:54:03.240Z,0.80
2018-03-21T13:56:31.498Z,0.80
2018-03-21T13:58:58.983Z,0.80
2018-03-21T14:01:26.508Z,0.70
2018-03-21T14:03:53.990Z,0.60
2018-03-21T14:06:22.239Z,0.60
2018-03-21T14:08:49.738Z,0.60
2018-03-21T14:11:17.254Z,0.60
2018-03-21T14:13:45.716Z,0.70
2018-03-21T14:16:13.223Z,0.70
2018-03-21T14:18:40.719Z,0.70
2018-03-21T14:21:08.244Z,0.80
2018-03-21T14:23:35.775Z,0.80
2018-03-21T14:26:03.247Z,0.90
2018-03-21T14:28:31.502Z,1.10
2018-03-21T14:30:59.022Z,1.10
2018-03-21T14:33:26.513Z,1.00
2018-03-21T14:35:54.010Z,1.00
2018-03-21T14:38:22.199Z,1.00
2018-03-21T14:40:49.671Z,1.00
2018-03-21T14:43:17.170Z,0.90
2018-03-21T14:45:44.700Z,0.90
2018-03-21T14:48:12.203Z,0.80
2018-03-21T14:50:40.468Z,0.90
2018-03-21T14:53:08.730Z,0.90
2018-03-21T14:55:36.203Z,0.90
2018-03-21T14:58:04.455Z,0.80
2018-03-21T15:00:32.951Z,0.80
2018-03-21T15:03:00.439Z,0.90
2018-03-21T15:05:27.923Z,0.90
2018-03-21T15:07:55.452Z,0.80
2018-03-21T15:10:22.956Z,0.80
2018-03-21T15:12:50.449Z,0.70
2018-03-21T15:15:18.719Z,0.60
2018-03-21T15:17:46.970Z,0.60
2018-03-21T15:20:14.450Z,0.60
2018-03-21T15:22:42.717Z,0.70
2018-03-21T15:25:10.190Z,0.70
2018-03-21T15:27:38.451Z,0.70
2018-03-21T15:30:06.726Z,0.80
2018-03-21T15:32:34.217Z,0.70
2018-03-21T15:35:01.715Z,0.80
2018-03-21T15:37:29.251Z,0.80
2018-03-21T15:39:56.716Z,0.70
2018-03-21T15:42:24.214Z,0.80
2018-03-21T15:44:51.744Z,0.70
2018-03-21T15:47:22.959Z,0.70
2018-03-21T15:49:50.464Z,0.70
2018-03-21T15:52:17.981Z,0.80
2018-03-21T15:54:45.469Z,0.80
2018-03-21T15:57:12.948Z,0.90
2018-03-21T15:59:40.450Z,0.90
2018-03-21T16:02:08.863Z,0.90
2018-03-21T16:04:36.384Z,0.90
2018-03-21T16:07:03.875Z,0.80
2018-03-21T16:09:34.760Z,0.80
2018-03-21T16:12:04.252Z,0.80
2018-03-21T16:14:32.527Z,0.80
2018-03-21T16:17:00.779Z,0.80
2018-03-21T16:19:28.302Z,0.80
2018-03-21T16:21:56.834Z,0.80
2018-03-21T16:24:25.103Z,0.80
2018-03-21T16:26:52.602Z,0.70
2018-03-21T16:29:20.101Z,0.70
2018-03-21T16:31:47.593Z,0.70
2018-03-21T16:34:15.879Z,0.70
2018-03-21T16:36:44.138Z,0.70
2018-03-21T16:39:12.402Z,0.70
2018-03-21T16:41:40.173Z,0.70
2018-03-21T16:44:07.658Z,0.70
2018-03-21T16:46:35.146Z,0.70
2018-03-21T16:49:03.639Z,0.60
2018-03-21T16:51:31.914Z,0.50
2018-03-21T16:53:59.386Z,0.50
2018-03-21T16:56:27.032Z,0.50
2018-03-21T16:58:54.455Z,0.50
2018-03-21T17:01:22.854Z,0.40
2018-03-21T17:03:50.357Z,0.30
2018-03-21T17:06:21.638Z,0.00
2018-03-21T17:08:51.081Z,0.00
2018-03-21T17:11:19.330Z,0.00
2018-03-21T17:13:46.838Z,-0.10
2018-03-21T17:16:14.354Z,-0.20
2018-03-21T17:18:41.877Z,-0.40
2018-03-21T17:21:09.329Z,-0.50
2018-03-21T17:23:37.613Z,-0.90
2018-03-21T17:26:05.807Z,-0.90
2018-03-21T17:28:33.303Z,-1.00
2018-03-21T17:31:00.823Z,-1.10
2018-03-21T17:33:28.319Z,-1.20
2018-03-21T17:35:55.805Z,-1.40
2018-03-21T17:38:24.114Z,-1.50
2018-03-21T17:40:51.607Z,-1.50
2018-03-21T17:43:22.443Z,-1.50
2018-03-21T17:45:49.958Z,-1.70
2018-03-21T17:48:17.449Z,-1.70
2018-03-21T17:50:44.960Z,-1.90
2018-03-21T17:53:12.484Z,-2.00
2018-03-21T17:55:39.975Z,-2.10
2018-03-21T17:58:07.482Z,-2.10
2018-03-21T18:00:35.784Z,-2.40
2018-03-21T18:03:03.266Z,-2.40
2018-03-21T18:05:31.523Z,-2.50
2018-03-21T18:07:59.832Z,-2.60
2018-03-21T18:10:29.292Z,-2.70
2018-03-21T18:12:56.855Z,-2.50
2018-03-21T18:15:25.159Z,-2.60
2018-03-21T18:17:52.646Z,-2.60
2018-03-21T18:20:20.151Z,-2.60
2018-03-21T18:22:48.427Z,-2.70
2018-03-21T18:25:16.678Z,-2.70
2018-03-21T18:27:44.217Z,-2.70
2018-03-21T18:30:12.695Z,-2.70
2018-03-21T18:32:40.186Z,-2.80
2018-03-21T18:35:07.698Z,-2.80
2018-03-21T18:37:35.190Z,-2.80
2018-03-21T18:40:02.721Z,-2.90
2018-03-21T18:42:30.265Z,-2.90
2018-03-21T18:44:57.767Z,-2.90
2018-03-21T18:47:26.251Z,-2.90
2018-03-21T18:49:53.769Z,-2.90
2018-03-21T18:52:21.283Z,-3.00
2018-03-21T18:54:49.562Z,-3.10
2018-03-21T18:57:18.061Z,-3.00
2018-03-21T18:59:45.583Z,-3.00
2018-03-21T19:02:13.102Z,-3.00
2018-03-21T19:04:40.630Z,-3.00
2018-03-21T19:07:08.887Z,-3.10
2018-03-21T19:09:37.151Z,-3.10
2018-03-21T19:12:04.865Z,-3.10
2018-03-21T19:14:32.342Z,-3.20
2018-03-21T19:16:59.833Z,-3.30
2018-03-21T19:19:27.361Z,-3.30
2018-03-21T19:21:54.850Z,-3.30
2018-03-21T19:24:22.345Z,-3.30
2018-03-21T19:26:49.867Z,-3.40
2018-03-21T19:29:17.387Z,-3.40
2018-03-21T19:31:45.882Z,-3.40
2018-03-21T19:34:13.377Z,-3.40
2018-03-21T19:36:41.651Z,-3.40
2018-03-21T19:39:09.907Z,-3.40
2018-03-21T19:41:37.405Z,-3.50
2018-03-21T19:44:04.907Z,-3.50
2018-03-21T19:46:32.408Z,-3.50
2018-03-21T19:49:00.689Z,-3.50
2018-03-21T19:51:28.975Z,-3.50
2018-03-21T19:53:56.483Z,-3.60
2018-03-21T19:56:24.006Z,-3.60
2018-03-21T19:58:51.498Z,-3.70
2018-03-21T20:01:19.004Z,-3.70
2018-03-21T20:03:46.513Z,-3.80
2018-03-21T20:06:14.006Z,-3.80
2018-03-21T20:08:43.190Z,-3.70
2018-03-21T20:11:11.690Z,-3.70
2018-03-21T20:13:39.178Z,-3.80
2018-03-21T20:16:06.663Z,-3.80
2018-03-21T20:18:34.172Z,-3.80
2018-03-21T20:21:01.682Z,-3.90
2018-03-21T20:23:29.169Z,-4.00
2018-03-21T20:25:57.436Z,-4.00
2018-03-21T20:28:25.691Z,-4.00
2018-03-21T20:30:53.212Z,-4.00
2018-03-21T20:33:20.708Z,-4.00
2018-03-21T20:35:48.186Z,-4.00
2018-03-21T20:38:16.453Z,-4.00
2018-03-21T20:40:43.970Z,-4.00
2018-03-21T20:43:11.452Z,-4.00
2018-03-21T20:45:38.955Z,-4.00
2018-03-21T20:48:06.454Z,-4.00
2018-03-21T20:50:33.942Z,-4.00
2018-03-21T20:53:02.238Z,-4.00
2018-03-21T20:55:29.738Z,-4.00
2018-03-21T20:57:57.217Z,-4.00
2018-03-21T21:00:24.897Z,-4.00
2018-03-21T21:02:53.147Z,-4.10
2018-03-21T21:05:20.636Z,-4.10
2018-03-21T21:07:49.106Z,-4.00
2018-03-21T21:10:17.352Z,-4.10
2018-03-21T21:12:45.847Z,-4.10
2018-03-21T21:15:13.350Z,-4.10
2018-03-21T21:17:40.853Z,-4.20
2018-03-21T21:20:09.328Z,-4.20
2018-03-21T21:22:36.822Z,-4.30
2018-03-21T21:25:05.080Z,-4.40
2018-03-21T21:27:32.564Z,-4.40
2018-03-21T21:30:00.836Z,-4.50
2018-03-21T21:32:29.097Z,-4.50
2018-03-21T21:34:57.350Z,-4.40
2018-03-21T21:37:24.890Z,-4.40
2018-03-21T21:39:52.375Z,-4.40
2018-03-21T21:42:20.057Z,-4.40
2018-03-21T21:44:48.318Z,-4.30
2018-03-21T21:47:15.808Z,-4.30
2018-03-21T21:49:43.314Z,-4.30
2018-03-21T21:52:10.794Z,-4.20
2018-03-21T21:54:38.266Z,-4.30
2018-03-21T21:57:06.523Z,-4.40
2018-03-21T21:59:34.778Z,-4.50
2018-03-21T22:02:02.259Z,-4.50
2018-03-21T22:04:29.762Z,-4.50
2018-03-21T22:06:57.246Z,-4.60
2018-03-21T22:09:24.736Z,-4.60
2018-03-21T22:11:53.002Z,-4.40
2018-03-21T22:14:20.487Z,-4.50
2018-03-21T22:16:48.022Z,-4.30
2018-03-21T22:19:15.526Z,-4.30
2018-03-21T22:21:43.000Z,-4.20
2018-03-21T22:24:10.478Z,-4.20
2018-03-21T22:26:37.973Z,-4.20
2018-03-21T22:29:05.447Z,-4.20
2018-03-21T22:31:32.928Z,-4.20
2018-03-21T22:34:00.429Z,-4.20
2018-03-21T22:36:28.671Z,-4.20
2018-03-21T22:38:56.151Z,-4.20
2018-03-21T22:41:23.660Z,-4.30
2018-03-21T22:43:51.135Z,-4.30
2018-03-21T22:46:18.610Z,-4.20
2018-03-21T22:48:46.289Z,-4.20
2018-03-21T22:51:13.770Z,-4.20
2018-03-21T22:53:41.245Z,-4.10
2018-03-21T22:56:08.901Z,-4.20
2018-03-21T22:58:36.377Z,-4.20
2018-03-21T23:01:03.853Z,-4.10
2018-03-21T23:03:31.355Z,-4.10
2018-03-21T23:05:59.606Z,-4.10
2018-03-21T23:08:27.096Z,-4.10
2018-03-21T23:10:55.451Z,-4.10
2018-03-21T23:13:23.706Z,-4.20
2018-03-21T23:15:51.239Z,-4.20
2018-03-21T23:18:18.738Z,-4.20
2018-03-21T23:20:46.218Z,-4.20
2018-03-21T23:23:13.702Z,-4.20
2018-03-21T23:25:41.203Z,-4.20
2018-03-21T23:28:08.700Z,-4.20
2018-03-21T23:30:36.203Z,-4.20
2018-03-21T23:33:03.699Z,-4.20
2018-03-21T23:35:31.946Z,-4.30
2018-03-21T23:37:59.434Z,-4.30
2018-03-21T23:40:27.715Z,-4.30
2018-03-21T23:42:55.198Z,-4.30
2018-03-21T23:45:22.695Z,-4.30
2018-03-21T23:47:50.202Z,-4.40
2018-03-21T23:50:17.688Z,-4.40
2018-03-21T23:52:45.171Z,-4.50
2018-03-21T23:55:12.678Z,-4.60
2018-03-21T23:57:40.157Z,-4.60
